createdAt,value
2022-08-28T00:01:10.244Z,18.20
2022-08-28T00:03:38.721Z,18.20
2022-08-28T00:06:07.776Z,18.20
2022-08-28T00:08:36.397Z,18.20
2022-08-28T00:11:05.550Z,18.20
2022-08-28T00:13:35.248Z,18.20
2022-08-28T00:16:03.875Z,18.30
2022-08-28T00:18:32.978Z,18.30
2022-08-28T00:21:02.142Z,18.30
2022-08-28T00:23:42.880Z,18.40
2022-08-28T00:26:33.711Z,18.40
2022-08-28T00:29:04.721Z,18.30
2022-08-28T00:31:34.324Z,18.40
2022-08-28T00:36:31.662Z,18.30
2022-08-28T00:39:00.344Z,18.30
2022-08-28T00:41:31.293Z,18.20
2022-08-28T00:44:13.304Z,18.20
2022-08-28T00:46:45.614Z,18.20
2022-08-28T00:49:16.280Z,18.20
2022-08-28T00:52:03.696Z,18.10
2022-08-28T00:54:35.596Z,18.10
2022-08-28T00:57:07.395Z,18.80
2022-08-28T00:59:38.076Z,18.20
2022-08-28T01:02:08.175Z,18.20
2022-08-28T01:04:38.552Z,18.40
2022-08-28T01:07:10.898Z,18.20
2022-08-28T01:09:44.664Z,18.20
2022-08-28T01:12:18.242Z,18.20
2022-08-28T01:14:51.598Z,18.20
2022-08-28T01:17:23.561Z,18.20
2022-08-28T01:19:58.313Z,18.10
2022-08-28T01:22:37.329Z,17.90
2022-08-28T01:25:12.327Z,18.20
2022-08-28T01:27:41.949Z,18.10
2022-08-28T01:30:13.650Z,18.10
2022-08-28T01:32:45.877Z,18.10
2022-08-28T01:35:20.294Z,18.10
2022-08-28T01:37:49.670Z,18.00
2022-08-28T01:40:25.181Z,18.10
2022-08-28T01:42:54.458Z,18.10
2022-08-28T01:45:25.032Z,18.10
2022-08-28T01:47:53.418Z,18.20
2022-08-28T01:50:22.904Z,18.10
2022-08-28T01:52:51.221Z,18.20
2022-08-28T01:55:21.590Z,18.10
2022-08-28T01:57:54.873Z,19.00
2022-08-28T02:00:26.943Z,18.10
2022-08-28T02:02:57.174Z,18.10
2022-08-28T02:05:28.263Z,18.10
2022-08-28T02:07:57.271Z,18.10
2022-08-28T02:10:30.142Z,18.10
2022-08-28T02:12:59.456Z,18.00
2022-08-28T02:15:30.282Z,18.00
2022-08-28T02:17:58.858Z,18.00
2022-08-28T02:20:28.644Z,18.00
2022-08-28T02:22:58.222Z,17.90
2022-08-28T02:25:29.503Z,17.90
2022-08-28T02:27:57.854Z,17.90
2022-08-28T02:30:26.537Z,17.90
2022-08-28T02:35:25.287Z,17.60
2022-08-28T02:37:54.480Z,17.90
2022-08-28T02:40:27.149Z,17.90
2022-08-28T02:42:55.558Z,17.90
2022-08-28T02:45:23.868Z,17.90
2022-08-28T02:47:54.643Z,17.90
2022-08-28T02:50:24.042Z,16.90
2022-08-28T02:52:53.587Z,17.90
2022-08-28T02:55:24.637Z,18.10
2022-08-28T02:57:54.765Z,18.00
2022-08-28T03:00:26.797Z,17.90
2022-08-28T03:02:55.403Z,17.90
2022-08-28T03:05:26.865Z,17.80
2022-08-28T03:07:56.589Z,17.90
2022-08-28T03:10:25.186Z,17.80
2022-08-28T03:12:54.830Z,17.90
2022-08-28T03:15:23.241Z,14.20
2022-08-28T03:20:20.369Z,17.40
2022-08-28T03:25:34.868Z,17.80
2022-08-28T03:28:05.104Z,17.80
2022-08-28T03:30:33.459Z,16.40
2022-08-28T03:33:01.996Z,17.80
2022-08-28T03:35:30.836Z,17.80
2022-08-28T03:37:59.252Z,17.80
2022-08-28T03:40:27.650Z,17.30
2022-08-28T03:42:56.052Z,17.80
2022-08-28T03:45:25.871Z,17.80
2022-08-28T03:47:54.945Z,17.80
2022-08-28T03:52:53.044Z,17.90
2022-08-28T03:55:22.670Z,17.90
2022-08-28T03:57:51.615Z,17.90
2022-08-28T04:00:20.824Z,17.90
2022-08-28T04:02:50.569Z,18.20
2022-08-28T04:05:19.208Z,17.90
2022-08-28T04:07:47.589Z,17.90
2022-08-28T04:10:15.837Z,18.30
2022-08-28T04:12:44.797Z,18.00
2022-08-28T04:15:15.143Z,17.90
2022-08-28T04:17:43.504Z,18.40
2022-08-28T04:20:13.603Z,18.00
2022-08-28T04:22:41.929Z,18.00
2022-08-28T04:25:11.071Z,17.90
2022-08-28T04:27:40.103Z,17.90
2022-08-28T04:30:11.007Z,18.00
2022-08-28T04:32:40.999Z,17.90
2022-08-28T04:35:15.459Z,17.90
2022-08-28T04:37:44.480Z,17.90
2022-08-28T04:40:16.025Z,17.50
2022-08-28T04:45:13.604Z,17.90
2022-08-28T04:47:41.999Z,17.90
2022-08-28T04:50:13.412Z,17.90
2022-08-28T04:52:43.226Z,17.80
2022-08-28T04:55:11.807Z,17.80
2022-08-28T04:57:40.115Z,17.70
2022-08-28T05:00:11.671Z,17.80
2022-08-28T05:02:40.038Z,17.80
2022-08-28T05:05:09.378Z,17.80
2022-08-28T05:07:39.013Z,17.70
2022-08-28T05:10:11.079Z,17.80
2022-08-28T05:12:39.352Z,17.70
2022-08-28T05:17:37.639Z,17.80
2022-08-28T05:20:07.644Z,17.70
2022-08-28T05:22:35.894Z,17.70
2022-08-28T05:25:06.288Z,17.70
2022-08-28T05:27:35.421Z,16.40
2022-08-28T05:30:04.197Z,16.70
2022-08-28T05:32:32.532Z,17.70
2022-08-28T05:35:00.960Z,17.70
2022-08-28T05:37:29.250Z,17.70
2022-08-28T05:39:57.720Z,17.40
2022-08-28T05:42:30.562Z,17.70
2022-08-28T05:45:00.038Z,17.70
2022-08-28T05:47:28.392Z,17.80
2022-08-28T05:49:56.935Z,17.80
2022-08-28T05:52:25.320Z,17.80
2022-08-28T05:54:53.554Z,18.20
2022-08-28T05:59:51.977Z,18.00
2022-08-28T06:02:20.447Z,17.90
2022-08-28T06:04:49.047Z,17.90
2022-08-28T06:07:18.141Z,17.80
2022-08-28T06:09:46.841Z,17.90
2022-08-28T06:12:15.687Z,17.90
2022-08-28T06:17:14.562Z,17.90
2022-08-28T06:19:42.853Z,18.00
2022-08-28T06:22:14.788Z,18.00
2022-08-28T06:24:43.183Z,18.00
2022-08-28T06:27:11.544Z,21.20
2022-08-28T06:29:40.852Z,18.00
2022-08-28T06:32:09.337Z,18.00
2022-08-28T06:34:39.403Z,18.00
2022-08-28T06:39:36.651Z,18.00
2022-08-28T06:42:06.786Z,18.00
2022-08-28T06:44:35.053Z,18.20
2022-08-28T06:47:03.397Z,18.10
2022-08-28T06:49:31.710Z,18.10
2022-08-28T06:52:02.361Z,18.10
2022-08-28T06:54:31.134Z,18.20
2022-08-28T06:56:59.388Z,18.20
2022-08-28T06:59:27.707Z,18.30
2022-08-28T07:01:56.113Z,18.30
2022-08-28T07:06:54.800Z,18.40
2022-08-28T07:09:25.500Z,18.50
2022-08-28T07:11:54.444Z,18.50
2022-08-28T07:14:22.761Z,18.50
2022-08-28T07:16:54.048Z,18.50
2022-08-28T07:19:22.317Z,18.50
2022-08-28T07:24:20.474Z,18.90
2022-08-28T07:26:51.316Z,18.80
2022-08-28T07:29:20.846Z,18.80
2022-08-28T07:31:52.396Z,18.70
2022-08-28T07:34:27.292Z,18.80
2022-08-28T07:36:56.319Z,18.80
2022-08-28T07:39:25.276Z,18.80
2022-08-28T07:41:55.129Z,18.80
2022-08-28T07:44:41.013Z,18.80
2022-08-28T07:47:11.529Z,18.90
2022-08-28T07:49:41.534Z,19.00
2022-08-28T07:52:12.097Z,19.00
2022-08-28T07:54:41.517Z,19.20
2022-08-28T07:57:11.294Z,19.20
2022-08-28T08:02:11.641Z,19.50
2022-08-28T08:04:40.261Z,19.50
2022-08-28T08:09:40.325Z,19.60
2022-08-28T08:12:12.198Z,19.70
2022-08-28T08:14:43.129Z,19.80
2022-08-28T08:17:12.116Z,19.90
2022-08-28T08:19:40.981Z,20.00
2022-08-28T08:22:09.313Z,19.90
2022-08-28T08:24:37.636Z,20.00
2022-08-28T08:27:06.737Z,20.10
2022-08-28T08:29:40.673Z,20.20
2022-08-28T08:32:12.227Z,20.20
2022-08-28T08:34:45.774Z,20.20
2022-08-28T08:37:14.734Z,20.20
2022-08-28T08:39:44.391Z,20.20
2022-08-28T08:42:25.469Z,20.20
2022-08-28T08:44:58.537Z,20.30
2022-08-28T08:47:39.374Z,20.20
2022-08-28T08:50:16.523Z,20.20
2022-08-28T08:53:02.597Z,20.40
2022-08-28T08:55:35.493Z,20.40
2022-08-28T08:58:12.710Z,20.50
2022-08-28T09:01:02.625Z,20.60
2022-08-28T09:03:49.891Z,20.90
2022-08-28T09:06:33.367Z,20.90
2022-08-28T09:09:08.538Z,21.20
2022-08-28T09:11:50.336Z,21.30
2022-08-28T09:14:29.647Z,21.70
2022-08-28T09:17:01.711Z,22.10
2022-08-28T09:19:31.151Z,22.60
2022-08-28T09:21:59.894Z,22.90
2022-08-28T09:24:31.969Z,23.10
2022-08-28T09:29:35.715Z,23.60
2022-08-28T09:32:25.235Z,23.50
2022-08-28T09:35:12.573Z,23.50
2022-08-28T09:37:42.791Z,23.40
2022-08-28T09:40:23.830Z,23.20
2022-08-28T09:46:00.509Z,23.20
2022-08-28T09:48:36.966Z,23.40
2022-08-28T09:51:09.573Z,23.20
2022-08-28T09:53:44.513Z,23.50
2022-08-28T09:56:19.960Z,23.80
2022-08-28T09:58:54.608Z,24.00
2022-08-28T10:01:51.235Z,24.70
2022-08-28T10:04:55.851Z,26.00
2022-08-28T10:07:38.333Z,24.50
2022-08-28T10:10:27.868Z,24.30
2022-08-28T10:16:00.240Z,23.10
2022-08-28T10:18:44.634Z,23.00
2022-08-28T10:21:22.749Z,22.80
2022-08-28T10:24:31.418Z,22.50
2022-08-28T10:27:15.347Z,21.50
2022-08-28T10:30:05.179Z,22.80
2022-08-28T10:32:58.386Z,23.30
2022-08-28T10:35:39.805Z,23.60
2022-08-28T10:38:16.163Z,24.30
2022-08-28T10:40:56.949Z,25.00
2022-08-28T10:43:37.350Z,25.80
2022-08-28T10:46:13.765Z,26.90
2022-08-28T10:48:50.507Z,27.70
2022-08-28T10:51:34.752Z,28.30
2022-08-28T10:54:16.735Z,28.60
2022-08-28T10:56:56.580Z,28.90
2022-08-28T10:59:30.025Z,28.70
2022-08-28T11:01:59.720Z,28.10
2022-08-28T11:04:30.627Z,27.90
2022-08-28T11:07:05.213Z,27.40
2022-08-28T11:09:39.899Z,26.70
2022-08-28T11:12:36.716Z,26.60
2022-08-28T11:15:42.089Z,27.30
2022-08-28T11:19:00.968Z,27.60
2022-08-28T11:21:36.753Z,27.20
2022-08-28T11:24:12.197Z,26.50
2022-08-28T11:26:52.583Z,26.00
2022-08-28T11:30:35.577Z,25.40
2022-08-28T11:33:38.179Z,24.70
2022-08-28T11:36:12.047Z,24.50
2022-08-28T11:39:21.500Z,24.50
2022-08-28T11:42:37.318Z,24.20
2022-08-28T11:45:07.353Z,24.90
2022-08-28T11:47:56.635Z,25.50
2022-08-28T11:50:34.281Z,25.80
2022-08-28T11:53:50.088Z,25.70
2022-08-28T11:56:43.525Z,25.30
2022-08-28T11:59:48.105Z,24.80
2022-08-28T12:03:12.672Z,24.20
2022-08-28T12:05:55.337Z,23.90
2022-08-28T12:09:10.599Z,23.70
2022-08-28T12:12:05.437Z,23.80
2022-08-28T12:15:11.219Z,24.20
2022-08-28T12:17:55.439Z,24.80
2022-08-28T12:20:57.994Z,25.90
2022-08-28T12:23:39.242Z,26.60
2022-08-28T12:26:18.143Z,27.00
2022-08-28T12:28:51.469Z,26.90
2022-08-28T12:32:15.020Z,26.80
2022-08-28T12:34:50.970Z,26.80
2022-08-28T12:37:52.624Z,26.70
2022-08-28T12:40:26.610Z,26.50
2022-08-28T12:42:59.233Z,26.10
2022-08-28T12:45:33.693Z,26.10
2022-08-28T12:48:17.341Z,26.20
2022-08-28T12:50:45.687Z,26.60
2022-08-28T12:53:18.745Z,26.60
2022-08-28T12:55:47.956Z,27.00
2022-08-28T12:58:31.365Z,27.20
2022-08-28T13:01:05.563Z,26.80
2022-08-28T13:03:41.910Z,26.20
2022-08-28T13:06:10.804Z,25.70
2022-08-28T13:08:39.596Z,25.50
2022-08-28T13:11:08.305Z,25.30
2022-08-28T13:13:41.277Z,25.20
2022-08-28T13:16:12.753Z,25.20
2022-08-28T13:18:59.156Z,25.20
2022-08-28T13:21:35.871Z,25.40
2022-08-28T13:24:45.681Z,25.50
2022-08-28T13:27:25.399Z,25.40
2022-08-28T13:30:01.564Z,25.20
2022-08-28T13:32:32.597Z,25.30
2022-08-28T13:35:39.963Z,25.40
2022-08-28T13:38:12.539Z,25.40
2022-08-28T13:40:58.413Z,25.50
2022-08-28T13:43:42.886Z,25.40
2022-08-28T13:48:40.646Z,25.10
2022-08-28T13:51:20.629Z,25.20
2022-08-28T13:53:49.745Z,25.20
2022-08-28T13:56:18.114Z,26.40
2022-08-28T13:58:50.013Z,25.30
2022-08-28T14:04:16.134Z,25.50
2022-08-28T14:06:47.320Z,25.40
2022-08-28T14:09:17.746Z,25.30
2022-08-28T14:11:47.226Z,25.30
2022-08-28T14:14:15.689Z,25.20
2022-08-28T14:16:45.757Z,25.10
2022-08-28T14:19:14.459Z,25.10
2022-08-28T14:21:43.536Z,25.10
2022-08-28T14:24:13.839Z,25.20
2022-08-28T14:26:42.475Z,25.20
2022-08-28T14:29:14.376Z,25.40
2022-08-28T14:31:43.970Z,25.40
2022-08-28T14:34:16.299Z,24.50
2022-08-28T14:36:45.061Z,25.40
2022-08-28T14:39:15.051Z,25.40
2022-08-28T14:41:46.837Z,25.30
2022-08-28T14:44:16.553Z,25.20
2022-08-28T14:46:49.342Z,25.20
2022-08-28T14:49:20.725Z,25.60
2022-08-28T14:51:51.014Z,25.70
2022-08-28T14:54:24.519Z,25.70
2022-08-28T14:56:55.004Z,25.70
2022-08-28T14:59:27.212Z,26.20
2022-08-28T15:01:59.993Z,26.30
2022-08-28T15:04:34.704Z,26.30
2022-08-28T15:07:10.882Z,26.20
2022-08-28T15:09:43.857Z,25.90
2022-08-28T15:12:12.140Z,26.40
2022-08-28T15:14:40.591Z,25.50
2022-08-28T15:17:34.354Z,25.50
2022-08-28T15:22:32.310Z,25.10
2022-08-28T15:25:01.910Z,25.00
2022-08-28T15:27:30.424Z,25.10
2022-08-28T15:32:27.419Z,25.20
2022-08-28T15:34:55.669Z,25.10
2022-08-28T15:37:24.057Z,24.90
2022-08-28T15:40:10.063Z,24.90
2022-08-28T15:42:39.769Z,25.00
2022-08-28T15:45:08.591Z,25.20
2022-08-28T15:47:38.184Z,25.30
2022-08-28T15:50:08.240Z,25.30
2022-08-28T15:52:39.675Z,25.10
2022-08-28T15:55:09.078Z,25.00
2022-08-28T15:57:39.193Z,24.80
2022-08-28T16:00:10.603Z,24.50
2022-08-28T16:02:39.566Z,24.40
2022-08-28T16:05:09.058Z,24.30
2022-08-28T16:07:37.633Z,24.50
2022-08-28T16:10:08.384Z,24.90
2022-08-28T16:15:11.156Z,25.50
2022-08-28T16:20:12.411Z,25.70
2022-08-28T16:22:42.839Z,25.70
2022-08-28T16:27:41.677Z,25.50
2022-08-28T16:30:15.634Z,25.40
2022-08-28T16:32:46.752Z,25.30
2022-08-28T16:35:15.965Z,25.50
2022-08-28T16:37:44.738Z,25.60
2022-08-28T16:40:14.992Z,25.50
2022-08-28T16:45:21.976Z,25.00
2022-08-28T16:47:51.396Z,24.70
2022-08-28T16:50:20.437Z,24.70
2022-08-28T16:57:45.983Z,24.30
2022-08-28T17:00:15.183Z,24.20
2022-08-28T17:02:44.953Z,24.10
2022-08-28T17:05:14.142Z,24.00
2022-08-28T17:07:43.428Z,23.70
2022-08-28T17:10:14.834Z,23.50
2022-08-28T17:12:43.571Z,23.40
2022-08-28T17:15:13.124Z,23.40
2022-08-28T17:20:34.529Z,23.20
2022-08-28T17:23:02.742Z,23.20
2022-08-28T17:25:31.049Z,23.20
2022-08-28T17:28:00.220Z,23.00
2022-08-28T17:30:28.532Z,22.80
2022-08-28T17:32:57.083Z,22.70
2022-08-28T17:35:26.837Z,22.60
2022-08-28T17:37:55.682Z,22.50
2022-08-28T17:42:54.542Z,22.10
2022-08-28T17:47:52.779Z,22.30
2022-08-28T17:50:22.454Z,21.40
2022-08-28T17:52:52.269Z,21.50
2022-08-28T18:02:52.046Z,20.30
2022-08-28T18:05:20.980Z,20.10
2022-08-28T18:07:51.692Z,20.00
2022-08-28T18:10:21.765Z,19.70
2022-08-28T18:15:19.320Z,19.60
2022-08-28T18:17:50.421Z,19.50
2022-08-28T18:22:49.220Z,19.30
2022-08-28T18:25:33.701Z,19.10
2022-08-28T18:28:03.013Z,19.00
2022-08-28T18:30:31.740Z,18.90
2022-08-28T18:33:00.795Z,18.30
2022-08-28T18:35:31.572Z,18.70
2022-08-28T18:40:31.819Z,21.00
2022-08-28T18:43:00.321Z,18.50
2022-08-28T18:45:29.939Z,18.50
2022-08-28T18:47:58.969Z,18.50
2022-08-28T18:50:31.686Z,18.50
2022-08-28T18:53:01.476Z,18.30
2022-08-28T18:55:33.505Z,18.40
2022-08-28T18:58:03.338Z,18.40
2022-08-28T19:00:34.429Z,18.40
2022-08-28T19:03:03.126Z,18.30
2022-08-28T19:05:31.679Z,18.90
2022-08-28T19:08:02.165Z,18.10
2022-08-28T19:10:34.402Z,18.00
2022-08-28T19:13:03.877Z,18.00
2022-08-28T19:15:34.578Z,18.00
2022-08-28T19:18:04.212Z,17.90
2022-08-28T19:20:33.319Z,17.90
2022-08-28T19:23:02.190Z,17.70
2022-08-28T19:25:32.506Z,17.60
2022-08-28T19:28:03.129Z,17.60
2022-08-28T19:30:34.587Z,17.50
2022-08-28T19:33:06.013Z,17.50
2022-08-28T19:35:34.925Z,17.40
2022-08-28T19:38:03.595Z,17.50
2022-08-28T19:40:33.661Z,17.50
2022-08-28T19:43:02.294Z,17.50
2022-08-28T19:45:34.138Z,17.40
2022-08-28T19:48:03.248Z,17.50
2022-08-28T19:50:31.716Z,17.50
2022-08-28T19:55:29.928Z,17.40
2022-08-28T19:58:00.120Z,17.50
2022-08-28T20:00:31.813Z,17.70
2022-08-28T20:03:00.515Z,18.20
2022-08-28T20:05:29.174Z,18.00
2022-08-28T20:07:57.636Z,18.10
2022-08-28T20:10:27.779Z,18.20
2022-08-28T20:12:56.461Z,18.20
2022-08-28T20:15:26.261Z,18.30
2022-08-28T20:17:54.643Z,18.30
2022-08-28T20:20:27.942Z,18.30
2022-08-28T20:22:58.413Z,18.40
2022-08-28T20:25:27.626Z,18.40
2022-08-28T20:28:00.909Z,18.40
2022-08-28T20:30:31.765Z,18.50
2022-08-28T20:33:02.054Z,18.40
2022-08-28T20:37:59.548Z,18.10
2022-08-28T20:40:28.471Z,17.90
2022-08-28T20:42:57.130Z,17.70
2022-08-28T20:45:25.805Z,17.60
2022-08-28T20:47:55.664Z,17.40
2022-08-28T20:52:53.066Z,17.20
2022-08-28T20:55:21.683Z,17.30
2022-08-28T20:57:50.081Z,17.10
2022-08-28T21:00:18.438Z,17.00
2022-08-28T21:02:46.729Z,16.90
2022-08-28T21:05:16.438Z,16.90
2022-08-28T21:07:44.984Z,16.90
2022-08-28T21:10:13.206Z,16.90
2022-08-28T21:12:41.567Z,16.90
2022-08-28T21:15:13.424Z,16.90
2022-08-28T21:17:42.630Z,16.90
2022-08-28T21:20:16.215Z,17.00
2022-08-28T21:22:45.462Z,16.90
2022-08-28T21:25:15.391Z,17.00
2022-08-28T21:30:17.758Z,17.10
2022-08-28T21:32:47.424Z,17.10
2022-08-28T21:35:19.962Z,17.30
2022-08-28T21:37:49.690Z,17.30
2022-08-28T21:42:50.644Z,17.30
2022-08-28T21:45:19.944Z,17.30
2022-08-28T21:47:49.345Z,17.40
2022-08-28T21:50:24.176Z,17.40
2022-08-28T21:52:58.289Z,17.40
2022-08-28T21:55:39.057Z,17.40
2022-08-28T21:58:19.514Z,17.40
2022-08-28T22:01:02.172Z,17.30
2022-08-28T22:03:40.234Z,17.30
2022-08-28T22:06:20.136Z,17.20
2022-08-28T22:08:56.229Z,17.10
2022-08-28T22:16:40.947Z,17.00
2022-08-28T22:19:16.160Z,17.00
2022-08-28T22:22:08.165Z,17.00
2022-08-28T22:27:13.616Z,17.10
2022-08-28T22:32:16.391Z,16.70
2022-08-28T22:34:51.592Z,17.10
2022-08-28T22:37:33.865Z,17.10
2022-08-28T22:40:13.387Z,17.00
2022-08-28T22:42:45.287Z,17.00
2022-08-28T22:45:16.286Z,17.00
2022-08-28T22:47:57.806Z,17.00
2022-08-28T22:50:37.769Z,17.00
2022-08-28T22:53:19.344Z,16.90
2022-08-28T22:55:48.845Z,16.10
2022-08-28T22:58:18.258Z,16.90
2022-08-28T23:00:53.784Z,16.90
2022-08-28T23:03:25.175Z,16.90
2022-08-28T23:05:54.745Z,16.20
2022-08-28T23:08:33.729Z,16.80
2022-08-28T23:11:05.525Z,16.70
2022-08-28T23:13:35.541Z,16.60
2022-08-28T23:16:05.599Z,16.50
2022-08-28T23:19:06.498Z,15.80
2022-08-28T23:21:32.207Z,16.30
2022-08-28T23:24:04.486Z,16.30
2022-08-28T23:26:39.573Z,16.30
2022-08-28T23:29:15.570Z,16.20
2022-08-28T23:31:45.645Z,16.20
2022-08-28T23:34:20.676Z,16.10
2022-08-28T23:36:51.971Z,16.10
2022-08-28T23:39:25.982Z,16.10
2022-08-28T23:42:02.547Z,16.10
2022-08-28T23:44:36.859Z,16.10
2022-08-28T23:47:06.876Z,16.00
2022-08-28T23:49:42.905Z,16.10
2022-08-28T23:52:20.921Z,16.00
2022-08-28T23:55:01.871Z,16.10
2022-08-28T23:57:31.725Z,16.00
